createdAt,value
2016-11-11T00:00:55.389Z,996.68
2016-11-11T00:01:55.256Z,996.67
2016-11-11T00:02:55.164Z,996.66
2016-11-11T00:03:55.535Z,996.67
2016-11-11T00:04:55.408Z,996.67
2016-11-11T00:05:55.773Z,996.69
2016-11-11T00:06:55.440Z,996.66
2016-11-11T00:07:55.491Z,996.65
2016-11-11T00:08:56.009Z,996.67
2016-11-11T00:09:55.343Z,996.66
2016-11-11T00:10:55.452Z,996.64
2016-11-11T00:11:55.568Z,996.71
2016-11-11T00:12:55.469Z,996.67
2016-11-11T00:13:55.667Z,996.7
2016-11-11T00:14:55.502Z,996.64
2016-11-11T00:15:55.821Z,996.67
2016-11-11T00:16:55.509Z,996.67
2016-11-11T00:17:55.588Z,996.7
2016-11-11T00:18:55.600Z,996.73
2016-11-11T00:19:55.514Z,996.74
2016-11-11T00:20:55.472Z,996.76
2016-11-11T00:21:55.839Z,996.81
2016-11-11T00:22:55.824Z,996.79
2016-11-11T00:23:55.841Z,996.8
2016-11-11T00:24:55.911Z,996.8
2016-11-11T00:25:55.929Z,996.79
2016-11-11T00:26:55.785Z,996.81
2016-11-11T00:27:55.674Z,996.82
2016-11-11T00:28:56.080Z,996.82
2016-11-11T00:29:55.903Z,996.79
2016-11-11T00:30:55.722Z,996.8
2016-11-11T00:31:55.756Z,996.8
2016-11-11T00:32:55.898Z,996.83
2016-11-11T00:33:56.118Z,996.83
2016-11-11T00:34:55.790Z,996.82
2016-11-11T00:35:55.851Z,996.83
2016-11-11T00:36:55.890Z,996.81
2016-11-11T00:37:55.839Z,996.81
2016-11-11T00:38:55.878Z,996.82
2016-11-11T00:39:56.219Z,996.84
2016-11-11T00:40:56.173Z,996.84
2016-11-11T00:41:55.789Z,996.84
2016-11-11T00:42:55.994Z,996.83
2016-11-11T00:43:56.369Z,996.84
2016-11-11T00:44:56.229Z,996.84
2016-11-11T00:45:55.826Z,996.86
2016-11-11T00:46:56.121Z,996.85
2016-11-11T00:47:56.135Z,996.88
2016-11-11T00:48:56.010Z,996.83
2016-11-11T00:49:55.867Z,996.85
2016-11-11T00:50:56.238Z,996.89
2016-11-11T00:51:56.749Z,996.87
2016-11-11T00:52:56.103Z,996.88
2016-11-11T00:53:56.065Z,996.92
2016-11-11T00:54:56.229Z,996.87
2016-11-11T00:55:56.457Z,996.92
2016-11-11T00:56:56.582Z,996.95
2016-11-11T00:57:56.343Z,996.93
2016-11-11T00:58:56.216Z,997
2016-11-11T00:59:56.458Z,996.95
2016-11-11T01:00:56.165Z,996.99
2016-11-11T01:01:56.038Z,997.01
2016-11-11T01:02:56.366Z,997
2016-11-11T01:03:56.124Z,997.01
2016-11-11T01:04:56.458Z,997.04
2016-11-11T01:05:56.137Z,997.04
2016-11-11T01:06:56.412Z,997.03
2016-11-11T01:07:56.446Z,997.05
2016-11-11T01:08:56.353Z,997.09
2016-11-11T01:09:56.130Z,997.07
2016-11-11T01:10:56.246Z,997.09
2016-11-11T01:11:56.281Z,997.08
2016-11-11T01:12:56.138Z,997.1
2016-11-11T01:13:56.221Z,997.1
2016-11-11T01:14:56.316Z,997.16
2016-11-11T01:15:56.472Z,997.17
2016-11-11T01:16:56.460Z,997.17
2016-11-11T01:17:56.566Z,997.17
2016-11-11T01:18:56.451Z,997.17
2016-11-11T01:19:56.463Z,997.16
2016-11-11T01:20:56.367Z,997.18
2016-11-11T01:21:56.515Z,997.2
2016-11-11T01:22:56.679Z,997.17
2016-11-11T01:23:56.417Z,997.18
2016-11-11T01:24:56.600Z,997.23
2016-11-11T01:25:56.404Z,997.17
2016-11-11T01:26:56.432Z,997.18
2016-11-11T01:27:56.630Z,997.15
2016-11-11T01:28:56.504Z,997.21
2016-11-11T01:29:56.509Z,997.24
2016-11-11T01:30:56.690Z,997.26
2016-11-11T01:31:56.559Z,997.21
2016-11-11T01:32:56.621Z,997.21
2016-11-11T01:33:57.041Z,997.23
2016-11-11T01:34:56.559Z,997.24
2016-11-11T01:35:56.684Z,997.24
2016-11-11T01:36:56.810Z,997.26
2016-11-11T01:37:56.622Z,997.18
2016-11-11T01:38:56.705Z,997.19
2016-11-11T01:39:57.015Z,997.2
2016-11-11T01:40:56.884Z,997.18
2016-11-11T01:41:56.697Z,997.19
2016-11-11T01:42:56.694Z,997.21
2016-11-11T01:43:56.603Z,997.16
2016-11-11T01:44:56.761Z,997.22
2016-11-11T01:45:56.764Z,997.18
2016-11-11T01:46:57.216Z,997.17
2016-11-11T01:47:56.754Z,997.17
2016-11-11T01:48:56.910Z,997.2
2016-11-11T01:49:56.703Z,997.2
2016-11-11T01:50:56.721Z,997.2
2016-11-11T01:51:56.777Z,997.25
2016-11-11T01:52:57.637Z,997.23
2016-11-11T01:53:57.048Z,997.2
2016-11-11T01:54:56.882Z,997.23
2016-11-11T01:55:56.918Z,997.2
2016-11-11T01:56:57.471Z,997.22
2016-11-11T01:57:56.860Z,997.23
2016-11-11T01:58:57.507Z,997.21
2016-11-11T01:59:57.345Z,997.23
2016-11-11T02:00:57.034Z,997.27
2016-11-11T02:01:56.943Z,997.3
2016-11-11T02:02:56.996Z,997.29
2016-11-11T02:03:57.009Z,997.29
2016-11-11T02:04:56.995Z,997.28
2016-11-11T02:05:57.012Z,997.31
2016-11-11T02:06:57.014Z,997.31
2016-11-11T02:07:57.349Z,997.27
2016-11-11T02:08:57.031Z,997.22
2016-11-11T02:09:57.044Z,997.25
2016-11-11T02:10:57.293Z,997.23
2016-11-11T02:11:57.329Z,997.21
2016-11-11T02:12:57.027Z,997.23
2016-11-11T02:13:57.369Z,997.23
2016-11-11T02:14:57.451Z,997.25
2016-11-11T02:15:57.657Z,997.26
2016-11-11T02:16:57.674Z,997.22
2016-11-11T02:17:57.301Z,997.28
2016-11-11T02:18:57.266Z,997.26
2016-11-11T02:19:57.499Z,997.23
2016-11-11T02:20:57.264Z,997.28
2016-11-11T02:21:57.790Z,997.27
2016-11-11T02:22:57.696Z,997.28
2016-11-11T02:23:58.060Z,997.35
2016-11-11T02:24:57.728Z,997.31
2016-11-11T02:25:57.370Z,997.33
2016-11-11T02:26:57.298Z,997.35
2016-11-11T02:27:57.511Z,997.33
2016-11-11T02:28:57.467Z,997.32
2016-11-11T02:29:57.715Z,997.34
2016-11-11T02:30:57.508Z,997.33
2016-11-11T02:31:57.671Z,997.35
2016-11-11T02:32:58.216Z,997.36
2016-11-11T02:33:57.447Z,997.37
2016-11-11T02:34:57.746Z,997.42
2016-11-11T02:35:57.435Z,997.36
2016-11-11T02:36:57.629Z,997.4
2016-11-11T02:37:57.910Z,997.41
2016-11-11T02:38:57.710Z,997.39
2016-11-11T02:39:57.592Z,997.43
2016-11-11T02:40:57.702Z,997.44
2016-11-11T02:41:57.507Z,997.45
2016-11-11T02:42:57.663Z,997.45
2016-11-11T02:43:57.627Z,997.47
2016-11-11T02:44:57.539Z,997.46
2016-11-11T02:45:57.595Z,997.46
2016-11-11T02:46:58.141Z,997.47
2016-11-11T02:47:57.571Z,997.47
2016-11-11T02:48:57.759Z,997.46
2016-11-11T02:49:57.946Z,997.47
2016-11-11T02:50:58.394Z,997.47
2016-11-11T02:51:57.880Z,997.49
2016-11-11T02:52:57.551Z,997.48
2016-11-11T02:53:57.809Z,997.5
2016-11-11T02:54:57.660Z,997.5
2016-11-11T02:55:57.844Z,997.53
2016-11-11T02:56:57.844Z,997.55
2016-11-11T02:57:57.997Z,997.53
2016-11-11T02:58:57.905Z,997.56
2016-11-11T02:59:57.743Z,997.59
2016-11-11T03:00:57.891Z,997.64
2016-11-11T03:01:57.968Z,997.63
2016-11-11T03:02:57.936Z,997.63
2016-11-11T03:03:57.881Z,997.66
2016-11-11T03:04:57.863Z,997.68
2016-11-11T03:05:58.243Z,997.67
2016-11-11T03:06:57.926Z,997.71
2016-11-11T03:07:57.856Z,997.72
2016-11-11T03:08:57.855Z,997.74
2016-11-11T03:09:58.175Z,997.75
2016-11-11T03:10:57.834Z,997.75
2016-11-11T03:11:57.890Z,997.76
2016-11-11T03:12:57.858Z,997.75
2016-11-11T03:13:57.950Z,997.78
2016-11-11T03:14:57.987Z,997.81
2016-11-11T03:15:57.983Z,997.85
2016-11-11T03:16:58.105Z,997.84
2016-11-11T03:17:57.905Z,997.88
2016-11-11T03:18:58.465Z,997.91
2016-11-11T03:19:58.373Z,997.91
2016-11-11T03:20:58.060Z,997.91
2016-11-11T03:21:58.044Z,997.92
2016-11-11T03:22:58.244Z,997.91
2016-11-11T03:23:58.144Z,997.95
2016-11-11T03:24:58.119Z,997.9
2016-11-11T03:25:58.246Z,997.95
2016-11-11T03:26:58.241Z,997.96
2016-11-11T03:27:58.138Z,997.99
2016-11-11T03:28:58.405Z,998
2016-11-11T03:29:58.085Z,998.02
2016-11-11T03:30:58.273Z,998.07
2016-11-11T03:31:58.184Z,998.06
2016-11-11T03:32:58.589Z,998.07
2016-11-11T03:33:58.389Z,998.06
2016-11-11T03:34:58.508Z,998.11
2016-11-11T03:35:58.583Z,998.17
2016-11-11T03:36:59.123Z,998.15
2016-11-11T03:37:58.472Z,998.15
2016-11-11T03:38:58.372Z,998.17
2016-11-11T03:39:58.417Z,998.17
2016-11-11T03:40:58.367Z,998.23
2016-11-11T03:41:58.421Z,998.28
2016-11-11T03:42:58.320Z,998.32
2016-11-11T03:43:58.631Z,998.34
2016-11-11T03:44:58.501Z,998.36
2016-11-11T03:45:58.468Z,998.38
2016-11-11T03:46:58.470Z,998.39
2016-11-11T03:47:58.692Z,998.42
2016-11-11T03:48:58.417Z,998.41
2016-11-11T03:49:58.492Z,998.4
2016-11-11T03:50:58.725Z,998.42
2016-11-11T03:51:58.613Z,998.46
2016-11-11T03:52:58.426Z,998.48
2016-11-11T03:53:58.456Z,998.45
2016-11-11T03:54:58.493Z,998.47
2016-11-11T03:55:58.405Z,998.5
2016-11-11T03:56:58.908Z,998.5
2016-11-11T03:57:58.568Z,998.48
2016-11-11T03:58:58.918Z,998.48
2016-11-11T03:59:58.592Z,998.57
2016-11-11T04:00:58.741Z,998.57
2016-11-11T04:01:58.723Z,998.54
2016-11-11T04:02:58.799Z,998.61
2016-11-11T04:03:58.628Z,998.63
2016-11-11T04:04:58.672Z,998.61
2016-11-11T04:05:59.133Z,998.61
2016-11-11T04:06:58.685Z,998.6
2016-11-11T04:07:58.773Z,998.63
2016-11-11T04:08:58.702Z,998.66
2016-11-11T04:09:58.729Z,998.64
2016-11-11T04:10:58.885Z,998.66
2016-11-11T04:11:58.682Z,998.69
2016-11-11T04:12:58.773Z,998.69
2016-11-11T04:13:58.762Z,998.68
2016-11-11T04:14:59.154Z,998.72
2016-11-11T04:15:58.714Z,998.71
2016-11-11T04:16:58.711Z,998.69
2016-11-11T04:17:59.162Z,998.74
2016-11-11T04:18:59.733Z,998.77
2016-11-11T04:19:59.006Z,998.83
2016-11-11T04:20:58.956Z,998.78
2016-11-11T04:21:59.104Z,998.81
2016-11-11T04:22:59.333Z,998.83
2016-11-11T04:23:59.030Z,998.83
2016-11-11T04:24:59.015Z,998.87
2016-11-11T04:25:59.628Z,998.82
2016-11-11T04:26:59.264Z,998.9
2016-11-11T04:27:59.454Z,998.89
2016-11-11T04:28:59.008Z,998.87
2016-11-11T04:29:59.344Z,998.93
2016-11-11T04:30:59.026Z,998.91
2016-11-11T04:31:59.190Z,998.92
2016-11-11T04:32:59.425Z,998.93
2016-11-11T04:33:58.994Z,998.9
2016-11-11T04:34:59.079Z,998.92
2016-11-11T04:35:59.075Z,998.92
2016-11-11T04:36:59.094Z,998.93
2016-11-11T04:37:59.183Z,998.97
2016-11-11T04:38:59.053Z,998.99
2016-11-11T04:39:58.996Z,999.02
2016-11-11T04:40:59.456Z,999.03
2016-11-11T04:41:59.199Z,999.01
2016-11-11T04:42:59.276Z,999.03
2016-11-11T04:43:59.178Z,999.04
2016-11-11T04:44:59.245Z,999.07
2016-11-11T04:45:59.307Z,999.04
2016-11-11T04:46:59.325Z,999.01
2016-11-11T04:47:59.420Z,998.99
2016-11-11T04:48:59.504Z,999.05
2016-11-11T04:49:59.351Z,999.03
2016-11-11T04:50:59.367Z,999.03
2016-11-11T04:51:59.348Z,999.08
2016-11-11T04:52:59.448Z,999.07
2016-11-11T04:53:59.353Z,999.11
2016-11-11T04:54:59.512Z,999.12
2016-11-11T04:55:59.325Z,999.15
2016-11-11T04:56:59.276Z,999.17
2016-11-11T04:57:59.277Z,999.18
2016-11-11T04:58:59.393Z,999.16
2016-11-11T04:59:59.526Z,999.2
2016-11-11T05:00:59.596Z,999.22
2016-11-11T05:01:59.488Z,999.17
2016-11-11T05:02:59.403Z,999.19
2016-11-11T05:03:59.418Z,999.25
2016-11-11T05:04:59.664Z,999.24
2016-11-11T05:05:59.421Z,999.27
2016-11-11T05:06:59.715Z,999.27
2016-11-11T05:07:59.613Z,999.34
2016-11-11T05:08:59.586Z,999.33
2016-11-11T05:09:59.697Z,999.34
2016-11-11T05:10:59.544Z,999.38
2016-11-11T05:11:59.540Z,999.4
2016-11-11T05:12:59.620Z,999.4
2016-11-11T05:13:59.680Z,999.43
2016-11-11T05:14:59.842Z,999.47
2016-11-11T05:15:59.697Z,999.51
2016-11-11T05:17:00.508Z,999.51
2016-11-11T05:18:00.105Z,999.55
2016-11-11T05:18:59.913Z,999.54
2016-11-11T05:19:59.699Z,999.57
2016-11-11T05:20:59.722Z,999.64
2016-11-11T05:21:59.819Z,999.62
2016-11-11T05:22:59.994Z,999.65
2016-11-11T05:24:00.269Z,999.67
2016-11-11T05:24:59.973Z,999.7
2016-11-11T05:25:59.787Z,999.73
2016-11-11T05:27:00.033Z,999.7
2016-11-11T05:28:00.044Z,999.7
2016-11-11T05:28:59.729Z,999.82
2016-11-11T05:29:59.824Z,999.82
2016-11-11T05:30:59.725Z,999.82
2016-11-11T05:31:59.877Z,999.85
2016-11-11T05:33:00.155Z,999.89
2016-11-11T05:34:00.037Z,999.94
2016-11-11T05:34:59.879Z,999.91
2016-11-11T05:36:00.099Z,999.97
2016-11-11T05:36:59.881Z,1000.02
2016-11-11T05:38:00.089Z,999.99
2016-11-11T05:38:59.901Z,1000.03
2016-11-11T05:39:59.861Z,1000.05
2016-11-11T05:41:00.010Z,1000.09
2016-11-11T05:42:00.587Z,1000.1
2016-11-11T05:43:00.304Z,1000.06
2016-11-11T05:44:00.054Z,1000.14
2016-11-11T05:44:59.959Z,1000.15
2016-11-11T05:46:00.347Z,1000.2
2016-11-11T05:47:00.408Z,1000.2
2016-11-11T05:48:00.529Z,1000.21
2016-11-11T05:49:00.295Z,1000.27
2016-11-11T05:50:00.265Z,1000.24
2016-11-11T05:51:00.771Z,1000.28
2016-11-11T05:52:00.208Z,1000.29
2016-11-11T05:53:00.332Z,1000.29
2016-11-11T05:54:00.353Z,1000.32
2016-11-11T05:55:00.708Z,1000.35
2016-11-11T05:56:00.175Z,1000.3
2016-11-11T05:57:00.342Z,1000.34
2016-11-11T05:58:00.664Z,1000.37
2016-11-11T05:59:00.223Z,1000.42
2016-11-11T06:00:00.556Z,1000.48
2016-11-11T06:01:00.418Z,1000.47
2016-11-11T06:02:00.223Z,1000.57
2016-11-11T06:03:00.185Z,1000.56
2016-11-11T06:04:00.646Z,1000.56
2016-11-11T06:05:00.624Z,1000.55
2016-11-11T06:06:00.383Z,1000.57
2016-11-11T06:07:00.417Z,1000.61
2016-11-11T06:08:00.321Z,1000.56
2016-11-11T06:09:00.527Z,1000.64
2016-11-11T06:10:00.656Z,1000.65
2016-11-11T06:11:00.488Z,1000.67
2016-11-11T06:12:00.481Z,1000.68
2016-11-11T06:13:00.449Z,1000.66
2016-11-11T06:14:00.869Z,1000.69
2016-11-11T06:15:00.834Z,1000.72
2016-11-11T06:16:01.089Z,1000.76
2016-11-11T06:17:00.475Z,1000.81
2016-11-11T06:18:00.478Z,1000.87
2016-11-11T06:19:00.669Z,1000.85
2016-11-11T06:20:00.446Z,1000.89
2016-11-11T06:21:01.106Z,1000.88
2016-11-11T06:22:00.977Z,1000.91
2016-11-11T06:23:00.854Z,1000.95
2016-11-11T06:24:00.733Z,1000.96
2016-11-11T06:25:00.666Z,1000.92
2016-11-11T06:26:00.879Z,1001.01
2016-11-11T06:27:00.956Z,1000.99
2016-11-11T06:28:01.023Z,1001.01
2016-11-11T06:29:00.735Z,1001.03
2016-11-11T06:30:00.602Z,1001.03
2016-11-11T06:31:00.791Z,1001.08
2016-11-11T06:32:00.856Z,1001.07
2016-11-11T06:33:00.682Z,1001.09
2016-11-11T06:34:00.826Z,1001.12
2016-11-11T06:35:00.802Z,1001.15
2016-11-11T06:36:01.610Z,1001.2
2016-11-11T06:37:01.416Z,1001.21
2016-11-11T06:38:00.983Z,1001.23
2016-11-11T06:39:00.839Z,1001.23
2016-11-11T06:40:01.425Z,1001.25
2016-11-11T06:41:00.977Z,1001.27
2016-11-11T06:42:01.017Z,1001.29
2016-11-11T06:43:00.748Z,1001.3
2016-11-11T06:44:00.941Z,1001.31
2016-11-11T06:45:00.775Z,1001.3
2016-11-11T06:46:00.912Z,1001.34
2016-11-11T06:47:00.810Z,1001.35
2016-11-11T06:48:01.038Z,1001.39
2016-11-11T06:49:00.848Z,1001.41
2016-11-11T06:50:00.863Z,1001.45
2016-11-11T06:51:00.950Z,1001.46
2016-11-11T06:52:00.872Z,1001.5
2016-11-11T06:53:00.988Z,1001.53
2016-11-11T06:54:01.038Z,1001.6
2016-11-11T06:55:01.011Z,1001.59
2016-11-11T06:56:01.152Z,1001.67
2016-11-11T06:57:01.084Z,1001.66
2016-11-11T06:58:01.183Z,1001.71
2016-11-11T06:59:01.104Z,1001.71
2016-11-11T07:00:01.013Z,1001.7
2016-11-11T07:01:01.094Z,1001.73
2016-11-11T07:02:01.392Z,1001.78
2016-11-11T07:03:01.417Z,1001.78
2016-11-11T07:04:01.047Z,1001.83
2016-11-11T07:05:01.047Z,1001.87
2016-11-11T07:06:01.134Z,1001.9
2016-11-11T07:07:01.352Z,1001.91
2016-11-11T07:08:01.494Z,1001.96
2016-11-11T07:09:01.121Z,1001.99
2016-11-11T07:10:01.194Z,1002
2016-11-11T07:11:01.253Z,1002.05
2016-11-11T07:12:01.255Z,1002.09
2016-11-11T07:13:01.213Z,1002.13
2016-11-11T07:14:01.262Z,1002.16
2016-11-11T07:15:01.238Z,1002.2
2016-11-11T07:16:01.374Z,1002.2
2016-11-11T07:17:01.238Z,1002.21
2016-11-11T07:18:01.247Z,1002.27
2016-11-11T07:19:01.667Z,1002.26
2016-11-11T07:20:01.225Z,1002.26
2016-11-11T07:21:01.334Z,1002.28
2016-11-11T07:22:01.257Z,1002.32
2016-11-11T07:23:01.539Z,1002.33
2016-11-11T07:24:01.454Z,1002.33
2016-11-11T07:25:01.278Z,1002.35
2016-11-11T07:26:01.364Z,1002.4
2016-11-11T07:27:01.357Z,1002.42
2016-11-11T07:28:01.392Z,1002.44
2016-11-11T07:29:01.409Z,1002.45
2016-11-11T07:30:01.422Z,1002.46
2016-11-11T07:31:01.497Z,1002.47
2016-11-11T07:32:01.400Z,1002.49
2016-11-11T07:33:01.438Z,1002.49
2016-11-11T07:34:01.609Z,1002.54
2016-11-11T07:35:01.575Z,1002.58
2016-11-11T07:36:01.637Z,1002.58
2016-11-11T07:37:01.441Z,1002.62
2016-11-11T07:38:01.750Z,1002.66
2016-11-11T07:39:01.523Z,1002.68
2016-11-11T07:40:01.663Z,1002.65
2016-11-11T07:41:01.692Z,1002.68
2016-11-11T07:42:01.898Z,1002.69
2016-11-11T07:43:01.840Z,1002.72
2016-11-11T07:44:01.588Z,1002.76
2016-11-11T07:45:01.797Z,1002.78
2016-11-11T07:46:01.962Z,1002.81
2016-11-11T07:47:01.628Z,1002.85
2016-11-11T07:48:01.843Z,1002.84
2016-11-11T07:49:02.041Z,1002.89
2016-11-11T07:50:01.999Z,1002.93
2016-11-11T07:51:01.971Z,1002.94
2016-11-11T07:52:01.946Z,1002.97
2016-11-11T07:53:01.948Z,1002.99
2016-11-11T07:54:01.690Z,1003.02
2016-11-11T07:55:01.854Z,1003.03
2016-11-11T07:56:01.846Z,1003.02
2016-11-11T07:57:02.356Z,1003.06
2016-11-11T07:58:02.038Z,1003.11
2016-11-11T07:59:02.029Z,1003.15
2016-11-11T08:00:02.190Z,1003.13
2016-11-11T08:01:02.353Z,1003.16
2016-11-11T08:02:02.127Z,1003.22
2016-11-11T08:03:01.880Z,1003.25
2016-11-11T08:04:01.864Z,1003.28
2016-11-11T08:05:02.078Z,1003.28
2016-11-11T08:06:01.922Z,1003.32
2016-11-11T08:07:02.047Z,1003.33
2016-11-11T08:08:01.982Z,1003.37
2016-11-11T08:09:02.586Z,1003.36
2016-11-11T08:10:02.160Z,1003.39
2016-11-11T08:11:02.273Z,1003.46
2016-11-11T08:12:02.144Z,1003.43
2016-11-11T08:13:02.080Z,1003.46
2016-11-11T08:14:02.177Z,1003.48
2016-11-11T08:15:02.206Z,1003.5
2016-11-11T08:16:02.231Z,1003.5
2016-11-11T08:17:03.148Z,1003.58
2016-11-11T08:18:02.674Z,1003.55
2016-11-11T08:19:02.072Z,1003.61
2016-11-11T08:20:02.288Z,1003.6
2016-11-11T08:21:05.462Z,1003.61
2016-11-11T08:22:02.282Z,1003.61
2016-11-11T08:23:02.357Z,1003.65
2016-11-11T08:24:02.206Z,1003.74
2016-11-11T08:25:02.128Z,1003.76
2016-11-11T08:26:02.230Z,1003.76
2016-11-11T08:27:02.574Z,1003.82
2016-11-11T08:28:02.306Z,1003.85
2016-11-11T08:29:02.270Z,1003.9
2016-11-11T08:30:02.707Z,1003.91
2016-11-11T08:31:02.540Z,1003.95
2016-11-11T08:32:02.499Z,1003.98
2016-11-11T08:33:02.636Z,1004
2016-11-11T08:34:02.506Z,1004.04
2016-11-11T08:35:02.617Z,1004.07
2016-11-11T08:36:02.635Z,1004.09
2016-11-11T08:37:02.701Z,1004.12
2016-11-11T08:38:02.703Z,1004.14
2016-11-11T08:39:03.084Z,1004.16
2016-11-11T08:40:02.992Z,1004.23
2016-11-11T08:41:02.360Z,1004.22
2016-11-11T08:42:02.405Z,1004.25
2016-11-11T08:43:02.962Z,1004.27
2016-11-11T08:44:02.890Z,1004.24
2016-11-11T08:45:02.542Z,1004.24
2016-11-11T08:46:02.376Z,1004.26
2016-11-11T08:47:02.832Z,1004.31
2016-11-11T08:48:02.905Z,1004.32
2016-11-11T08:49:02.760Z,1004.32
2016-11-11T08:50:02.886Z,1004.35
2016-11-11T08:51:02.855Z,1004.35
2016-11-11T08:52:03.281Z,1004.34
2016-11-11T08:53:02.731Z,1004.32
2016-11-11T08:54:02.712Z,1004.36
2016-11-11T08:55:03.292Z,1004.36
2016-11-11T08:56:02.854Z,1004.36
2016-11-11T08:57:02.963Z,1004.36
2016-11-11T08:58:03.504Z,1004.41
2016-11-11T08:59:03.230Z,1004.41
2016-11-11T09:00:02.709Z,1004.39
2016-11-11T09:01:02.715Z,1004.46
2016-11-11T09:02:02.945Z,1004.47
2016-11-11T09:03:03.554Z,1004.5
2016-11-11T09:04:02.816Z,1004.56
2016-11-11T09:05:02.726Z,1004.57
2016-11-11T09:06:03.030Z,1004.63
2016-11-11T09:07:02.972Z,1004.65
2016-11-11T09:08:02.791Z,1004.67
2016-11-11T09:09:02.763Z,1004.71
2016-11-11T09:10:02.864Z,1004.75
2016-11-11T09:11:03.306Z,1004.82
2016-11-11T09:12:02.875Z,1004.81
2016-11-11T09:13:02.851Z,1004.87
2016-11-11T09:14:03.369Z,1004.85
2016-11-11T09:15:03.138Z,1004.89
2016-11-11T09:16:03.213Z,1004.88
2016-11-11T09:17:03.388Z,1004.88
2016-11-11T09:18:03.103Z,1004.9
2016-11-11T09:19:03.303Z,1004.96
2016-11-11T09:20:03.074Z,1004.96
2016-11-11T09:21:03.084Z,1005.01
2016-11-11T09:22:03.081Z,1005.07
2016-11-11T09:23:03.097Z,1005.03
2016-11-11T09:24:03.388Z,1005.07
2016-11-11T09:25:03.042Z,1005.14
2016-11-11T09:26:03.009Z,1005.1
2016-11-11T09:27:03.061Z,1005.2
2016-11-11T09:28:03.191Z,1005.2
2016-11-11T09:29:03.159Z,1005.19
2016-11-11T09:30:03.005Z,1005.23
2016-11-11T09:31:03.198Z,1005.3
2016-11-11T09:32:03.559Z,1005.29
2016-11-11T09:33:03.037Z,1005.28
2016-11-11T09:34:03.548Z,1005.29
2016-11-11T09:35:03.116Z,1005.33
2016-11-11T09:36:03.160Z,1005.41
2016-11-11T09:37:03.550Z,1005.39
2016-11-11T09:38:03.666Z,1005.44
2016-11-11T09:39:03.896Z,1005.45
2016-11-11T09:40:03.433Z,1005.45
2016-11-11T09:41:03.397Z,1005.54
2016-11-11T09:42:03.448Z,1005.52
2016-11-11T09:43:03.327Z,1005.56
2016-11-11T09:44:03.404Z,1005.57
2016-11-11T09:45:03.354Z,1005.58
2016-11-11T09:46:03.449Z,1005.6
2016-11-11T09:47:03.970Z,1005.6
2016-11-11T09:48:03.458Z,1005.61
2016-11-11T09:49:03.353Z,1005.68
2016-11-11T09:50:03.648Z,1005.63
2016-11-11T09:51:03.420Z,1005.64
2016-11-11T09:52:03.549Z,1005.69
2016-11-11T09:53:03.376Z,1005.69
2016-11-11T09:54:03.618Z,1005.69
2016-11-11T09:55:03.699Z,1005.74
2016-11-11T09:56:03.486Z,1005.77
2016-11-11T09:57:03.555Z,1005.73
2016-11-11T09:58:03.937Z,1005.77
2016-11-11T09:59:03.477Z,1005.81
2016-11-11T10:00:03.731Z,1005.85
2016-11-11T10:01:03.632Z,1005.83
2016-11-11T10:02:04.020Z,1005.91
2016-11-11T10:03:03.693Z,1005.95
2016-11-11T10:04:03.768Z,1005.99
2016-11-11T10:05:03.605Z,1006.02
2016-11-11T10:06:03.736Z,1006.05
2016-11-11T10:07:03.621Z,1006.13
2016-11-11T10:08:03.728Z,1006.15
2016-11-11T10:09:03.841Z,1006.15
2016-11-11T10:10:03.741Z,1006.16
2016-11-11T10:11:03.722Z,1006.13
2016-11-11T10:12:04.086Z,1006.14
2016-11-11T10:13:03.775Z,1006.16
2016-11-11T10:14:03.583Z,1006.22
2016-11-11T10:15:03.829Z,1006.21
2016-11-11T10:16:03.813Z,1006.23
2016-11-11T10:17:03.962Z,1006.26
2016-11-11T10:18:03.822Z,1006.27
2016-11-11T10:19:03.836Z,1006.28
2016-11-11T10:20:03.956Z,1006.28
2016-11-11T10:21:04.414Z,1006.29
2016-11-11T10:22:04.040Z,1006.38
2016-11-11T10:23:04.031Z,1006.42
2016-11-11T10:24:03.831Z,1006.4
2016-11-11T10:25:03.971Z,1006.41
2016-11-11T10:26:03.868Z,1006.43
2016-11-11T10:27:03.962Z,1006.4
2016-11-11T10:28:03.956Z,1006.39
2016-11-11T10:29:03.900Z,1006.39
2016-11-11T10:30:04.004Z,1006.44
2016-11-11T10:31:03.919Z,1006.41
2016-11-11T10:32:04.282Z,1006.42
2016-11-11T10:33:03.967Z,1006.52
2016-11-11T10:34:04.460Z,1006.51
2016-11-11T10:35:03.922Z,1006.53
2016-11-11T10:36:04.308Z,1006.54
2016-11-11T10:37:04.281Z,1006.57
2016-11-11T10:38:04.205Z,1006.57
2016-11-11T10:39:04.277Z,1006.6
2016-11-11T10:40:04.217Z,1006.61
2016-11-11T10:41:04.213Z,1006.67
2016-11-11T10:42:04.169Z,1006.57
2016-11-11T10:43:04.179Z,1006.61
2016-11-11T10:44:04.579Z,1006.6
2016-11-11T10:45:04.165Z,1006.61
2016-11-11T10:46:04.224Z,1006.62
2016-11-11T10:47:04.200Z,1006.63
2016-11-11T10:48:04.219Z,1006.68
2016-11-11T10:49:04.201Z,1006.7
2016-11-11T10:50:04.182Z,1006.67
2016-11-11T10:51:04.507Z,1006.62
2016-11-11T10:52:04.279Z,1006.71
2016-11-11T10:53:04.317Z,1006.68
2016-11-11T10:54:04.324Z,1006.66
2016-11-11T10:55:04.713Z,1006.7
2016-11-11T10:56:04.295Z,1006.77
2016-11-11T10:57:04.436Z,1006.76
2016-11-11T10:58:04.289Z,1006.79
2016-11-11T10:59:04.496Z,1006.79
2016-11-11T11:00:04.348Z,1006.82
2016-11-11T11:01:04.268Z,1006.85
2016-11-11T11:02:04.477Z,1006.9
2016-11-11T11:03:04.403Z,1006.91
2016-11-11T11:04:04.382Z,1006.97
2016-11-11T11:05:04.500Z,1006.96
2016-11-11T11:06:04.699Z,1006.95
2016-11-11T11:07:04.619Z,1006.98
2016-11-11T11:08:04.794Z,1006.96
2016-11-11T11:09:04.470Z,1007.01
2016-11-11T11:10:04.574Z,1006.96
2016-11-11T11:11:04.820Z,1007.01
2016-11-11T11:12:04.496Z,1006.96
2016-11-11T11:13:04.516Z,1007.03
2016-11-11T11:14:04.580Z,1007.03
2016-11-11T11:15:05.060Z,1007.03
2016-11-11T11:16:04.839Z,1007.05
2016-11-11T11:17:04.596Z,1007.07
2016-11-11T11:18:04.778Z,1007.08
2016-11-11T11:19:04.775Z,1007.1
2016-11-11T11:20:04.723Z,1007.1
2016-11-11T11:21:04.877Z,1007.08
2016-11-11T11:22:04.854Z,1007.1
2016-11-11T11:23:04.782Z,1007.16
2016-11-11T11:24:04.803Z,1007.16
2016-11-11T11:25:04.972Z,1007.15
2016-11-11T11:26:04.956Z,1007.2
2016-11-11T11:27:05.034Z,1007.19
2016-11-11T11:28:04.709Z,1007.22
2016-11-11T11:29:04.806Z,1007.22
2016-11-11T11:30:04.822Z,1007.27
2016-11-11T11:31:04.859Z,1007.28
2016-11-11T11:32:04.927Z,1007.33
2016-11-11T11:33:05.000Z,1007.37
2016-11-11T11:34:04.928Z,1007.42
2016-11-11T11:35:04.886Z,1007.38
2016-11-11T11:36:04.796Z,1007.34
2016-11-11T11:37:05.557Z,1007.4
2016-11-11T11:38:04.983Z,1007.41
2016-11-11T11:39:05.060Z,1007.44
2016-11-11T11:40:04.991Z,1007.43
2016-11-11T11:41:04.847Z,1007.45
2016-11-11T11:42:05.577Z,1007.47
2016-11-11T11:43:04.889Z,1007.53
2016-11-11T11:44:04.936Z,1007.55
2016-11-11T11:45:04.981Z,1007.55
2016-11-11T11:46:05.074Z,1007.58
2016-11-11T11:47:05.456Z,1007.56
2016-11-11T11:48:05.103Z,1007.57
2016-11-11T11:49:05.516Z,1007.59
2016-11-11T11:50:05.340Z,1007.61
2016-11-11T11:51:05.120Z,1007.62
2016-11-11T11:52:05.052Z,1007.65
2016-11-11T11:53:05.443Z,1007.65
2016-11-11T11:54:05.899Z,1007.64
2016-11-11T11:55:05.112Z,1007.68
2016-11-11T11:56:05.121Z,1007.73
2016-11-11T11:57:05.409Z,1007.72
2016-11-11T11:58:05.303Z,1007.75
2016-11-11T11:59:05.152Z,1007.77
2016-11-11T12:00:05.377Z,1007.77
2016-11-11T12:01:05.173Z,1007.79
2016-11-11T12:02:05.339Z,1007.8
2016-11-11T12:03:05.162Z,1007.84
2016-11-11T12:04:05.302Z,1007.79
2016-11-11T12:05:05.350Z,1007.83
2016-11-11T12:06:05.328Z,1007.92
2016-11-11T12:07:05.351Z,1007.92
2016-11-11T12:08:05.468Z,1007.92
2016-11-11T12:09:05.426Z,1007.93
2016-11-11T12:10:05.324Z,1007.95
2016-11-11T12:11:05.509Z,1007.92
2016-11-11T12:12:05.502Z,1007.94
2016-11-11T12:13:05.680Z,1007.94
2016-11-11T12:14:05.412Z,1007.93
2016-11-11T12:15:05.471Z,1007.97
2016-11-11T12:16:05.337Z,1007.98
2016-11-11T12:17:05.912Z,1007.99
2016-11-11T12:18:06.447Z,1008.01
2016-11-11T12:19:05.555Z,1007.96